Island Princess — ZCDG4 — position and weather

sailwx.info

Track history (hours):
 
Tides and Currents Weather Stations Pressure Air Temp Water Temp Dewpoint Dewpoint Depression Visibility Wind Speed Wind Dir Waves Ship Positions

Island Princess

Operator: Princess Cruises

Last reported at 2019-Jan-23 22:20 UTC. Time now 2019-Jan-23 22:57 UTC.
Position N 10°14' W 076°10'.

Type: Passenger vessel. MMSI: 310384000.

Date/timePositionNaut miles runAvg speedWind from/ knotsBaromVisibWave heightAir tempDewpointWater temp
2019-Jan-23 22:20N 10°14' W 076°10'720.7
2019-Jan-23 22:00N 10°15' W 076°03'33 8.3
2019-Jan-23 18:00N 10°24' W 075°30'18 2.0 340 / 141007.210.8 31.022.329.0
2019-Jan-23 09:20N 10°26' W 075°48'12 8.7
2019-Jan-23 08:00N 10°36' W 075°54'1313.4 030 / 571007.510.8 26.021.529.0
2019-Jan-23 07:00N 10°48' W 076°00'8 8.4 030 / 481007.810.8 25.018.829.0
2019-Jan-23 06:00N 10°54' W 076°06'2210.8 030 / 561008.710.8 25.018.829.0
2019-Jan-23 04:00N 11°12' W 076°18'10212.8 040 / 561009.110.8 26.518.829.0
2019-Jan-22 20:00N 12°36' W 077°18'28914.4 030 / 471011.310.8 26.021.529.0
2019-Jan-22 00:00N 16°42' W 079°54'6115.3 050 / 201015.910.8 26.021.529.0
2019-Jan-21 20:00N 17°36' W 080°24'14712.3 020 / 281016.210.8 25.022.028.0
2019-Jan-21 08:00N 19°36' W 081°54'25412.7 350 / 271018.110.8 24.019.428.0
2019-Jan-20 12:00N 23°36' W 083°24'21818.9 350 / 551012.510.8 22.520.228.0
2019-Jan-20 00:28N 25°29' W 079°59'919.3
2019-Jan-20 00:00N 25°38' W 079°58'918.6
2019-Jan-19 23:30N 25°47' W 079°58'815.8
2019-Jan-19 23:01N 25°55' W 079°58'815.3
2019-Jan-19 22:30N 26°02' W 080°00'611.9
2019-Jan-19 22:00N 26°06' W 080°06'1 1.9
2019-Jan-19 21:28N 26°05' W 080°07'0 0.0
2019-Jan-19 20:58N 26°05' W 080°07'0 0.0
2019-Jan-19 20:28N 26°05' W 080°07'0 0.0
2019-Jan-19 19:58N 26°05' W 080°07'0 0.0
2019-Jan-19 19:28N 26°05' W 080°07'0 0.0
2019-Jan-19 18:58N 26°05' W 080°07'0 0.0
2019-Jan-19 18:28N 26°05' W 080°07'0 0.0
2019-Jan-19 17:58N 26°05' W 080°07'0 0.0
2019-Jan-19 17:28N 26°05' W 080°07'0 0.0
2019-Jan-19 16:58N 26°05' W 080°07'0 0.0
2019-Jan-19 16:28N 26°05' W 080°07'0 0.0
2019-Jan-19 15:58N 26°05' W 080°07'0 0.0
2019-Jan-19 15:28N 26°05' W 080°07'0 0.0
2019-Jan-19 14:58N 26°05' W 080°07'0 0.0
2019-Jan-19 14:28N 26°05' W 080°07'0 0.0
2019-Jan-19 13:58N 26°05' W 080°07'0 0.0
2019-Jan-19 13:28N 26°05' W 080°07'0 0.0
2019-Jan-19 12:58N 26°05' W 080°07'0 0.0
2019-Jan-19 12:28N 26°05' W 080°07'0 0.0
2019-Jan-19 11:58N 26°05' W 080°07'0 0.1
2019-Jan-19 11:30N 26°05' W 080°07'3 5.4
2019-Jan-19 11:00N 26°06' W 080°04'4 8.9
2019-Jan-19 10:30N 26°06' W 079°59'510.2
2019-Jan-19 10:01N 26°03' W 079°54'712.8
2019-Jan-19 09:30N 25°58' W 079°50'713.9
2019-Jan-19 09:00N 25°52' W 079°46'815.1
2019-Jan-19 08:30N 25°46' W 079°41'815.4
2019-Jan-19 08:00N 25°38' W 079°39'815.0
2019-Jan-19 07:30N 25°31' W 079°37'714.5
2019-Jan-19 07:00N 25°24' W 079°36'4916.4
2019-Jan-19 04:00N 24°36' W 079°24'29718.5 110 / 231019.610.8 22.515.027.0
2019-Jan-18 12:00N 21°12' W 075°30'   100 / 101017.510.8 23.520.428.0
2019-Jan-15 00:44N 09°23' W 079°54'1 5.4
2019-Jan-15 00:30N 09°22' W 079°53'0 0.1
2019-Jan-14 23:59N 09°22' W 079°53'0 0.0
2019-Jan-14 23:29N 09°22' W 079°53'0 0.0
2019-Jan-14 22:59N 09°22' W 079°53'0 0.0
2019-Jan-14 22:29N 09°22' W 079°53'0 0.0
2019-Jan-14 21:59N 09°22' W 079°53'0 0.0
2019-Jan-14 21:29N 09°22' W 079°53'0 0.0
2019-Jan-14 20:59N 09°22' W 079°53'0 0.0
2019-Jan-14 20:29N 09°22' W 079°53'0 0.8
2019-Jan-14 20:00N 09°22' W 079°54'2 4.9
2019-Jan-14 19:30N 09°24' W 079°54'4 8.4
2019-Jan-14 19:00N 09°20' W 079°55'3 6.2
2019-Jan-14 18:30N 09°17' W 079°55'0 0.6
2019-Jan-14 18:00N 09°17' W 079°55'0 0.4
2019-Jan-14 17:30N 09°16' W 079°55'0 0.3
2019-Jan-14 17:00N 09°16' W 079°55'0 0.6
2019-Jan-14 16:30N 09°16' W 079°55'0 0.8
2019-Jan-14 16:00N 09°16' W 079°55'0 0.5
2019-Jan-14 15:29N 09°15' W 079°55'0 0.1
2019-Jan-14 14:56N 09°15' W 079°55'0 0.1
2019-Jan-14 14:26N 09°15' W 079°55'0 0.1
2019-Jan-14 14:00N 09°15' W 079°55'1 1.6
2019-Jan-14 13:30N 09°16' W 079°55'0 0.4
2019-Jan-14 13:00N 09°16' W 079°55'0 0.4
2019-Jan-14 12:30N 09°17' W 079°55'0 1.0
2019-Jan-14 12:00N 09°17' W 079°55'3 5.2
2019-Jan-14 11:30N 09°20' W 079°55'3 6.6
2019-Jan-14 11:00N 09°23' W 079°55'4 7.2
2019-Jan-14 10:30N 09°27' W 079°55'611.2
2019-Jan-14 10:00N 09°32' W 079°53'713.8
2019-Jan-14 09:30N 09°39' W 079°51'613.0
2019-Jan-14 09:00N 09°44' W 079°48'  
Track history (hours):
 
Tides and Currents Weather Stations Pressure Air Temp Water Temp Dewpoint Dewpoint Depression Visibility Wind Speed Wind Dir Waves Ship Positions

Island Princess

Operator: Princess Cruises

Last reported at 2019-Jan-23 22:20 UTC. Time now 2019-Jan-23 22:57 UTC.
Position N 10°14' W 076°10'.

Type: Passenger vessel. MMSI: 310384000.

Date/timePositionNaut miles runAvg speedWind from/ knotsBaromVisibWave heightAir tempDewpointWater temp
2019-Jan-23 22:20N 10°14' W 076°10'720.7
2019-Jan-23 22:00N 10°15' W 076°03'33 8.3
2019-Jan-23 18:00N 10°24' W 075°30'18 2.0 340 / 141007.210.8 31.022.329.0
2019-Jan-23 09:20N 10°26' W 075°48'12 8.7
2019-Jan-23 08:00N 10°36' W 075°54'1313.4 030 / 571007.510.8 26.021.529.0
2019-Jan-23 07:00N 10°48' W 076°00'8 8.4 030 / 481007.810.8 25.018.829.0
2019-Jan-23 06:00N 10°54' W 076°06'2210.8 030 / 561008.710.8 25.018.829.0
2019-Jan-23 04:00N 11°12' W 076°18'10212.8 040 / 561009.110.8 26.518.829.0
2019-Jan-22 20:00N 12°36' W 077°18'28914.4 030 / 471011.310.8 26.021.529.0
2019-Jan-22 00:00N 16°42' W 079°54'6115.3 050 / 201015.910.8 26.021.529.0
2019-Jan-21 20:00N 17°36' W 080°24'14712.3 020 / 281016.210.8 25.022.028.0
2019-Jan-21 08:00N 19°36' W 081°54'25412.7 350 / 271018.110.8 24.019.428.0
2019-Jan-20 12:00N 23°36' W 083°24'21818.9 350 / 551012.510.8 22.520.228.0
2019-Jan-20 00:28N 25°29' W 079°59'919.3
2019-Jan-20 00:00N 25°38' W 079°58'918.6
2019-Jan-19 23:30N 25°47' W 079°58'815.8
2019-Jan-19 23:01N 25°55' W 079°58'815.3
2019-Jan-19 22:30N 26°02' W 080°00'611.9
2019-Jan-19 22:00N 26°06' W 080°06'1 1.9
2019-Jan-19 21:28N 26°05' W 080°07'0 0.0
2019-Jan-19 20:58N 26°05' W 080°07'0 0.0
2019-Jan-19 20:28N 26°05' W 080°07'0 0.0
2019-Jan-19 19:58N 26°05' W 080°07'0 0.0
2019-Jan-19 19:28N 26°05' W 080°07'0 0.0
2019-Jan-19 18:58N 26°05' W 080°07'0 0.0
2019-Jan-19 18:28N 26°05' W 080°07'0 0.0
2019-Jan-19 17:58N 26°05' W 080°07'0 0.0
2019-Jan-19 17:28N 26°05' W 080°07'0 0.0
2019-Jan-19 16:58N 26°05' W 080°07'0 0.0
2019-Jan-19 16:28N 26°05' W 080°07'0 0.0
2019-Jan-19 15:58N 26°05' W 080°07'0 0.0
2019-Jan-19 15:28N 26°05' W 080°07'0 0.0
2019-Jan-19 14:58N 26°05' W 080°07'0 0.0
2019-Jan-19 14:28N 26°05' W 080°07'0 0.0
2019-Jan-19 13:58N 26°05' W 080°07'0 0.0
2019-Jan-19 13:28N 26°05' W 080°07'0 0.0
2019-Jan-19 12:58N 26°05' W 080°07'0 0.0
2019-Jan-19 12:28N 26°05' W 080°07'0 0.0
2019-Jan-19 11:58N 26°05' W 080°07'0 0.1
2019-Jan-19 11:30N 26°05' W 080°07'3 5.4
2019-Jan-19 11:00N 26°06' W 080°04'4 8.9
2019-Jan-19 10:30N 26°06' W 079°59'510.2
2019-Jan-19 10:01N 26°03' W 079°54'712.8
2019-Jan-19 09:30N 25°58' W 079°50'713.9
2019-Jan-19 09:00N 25°52' W 079°46'815.1
2019-Jan-19 08:30N 25°46' W 079°41'815.4
2019-Jan-19 08:00N 25°38' W 079°39'815.0
2019-Jan-19 07:30N 25°31' W 079°37'714.5
2019-Jan-19 07:00N 25°24' W 079°36'4916.4
2019-Jan-19 04:00N 24°36' W 079°24'29718.5 110 / 231019.610.8 22.515.027.0
2019-Jan-18 12:00N 21°12' W 075°30'   100 / 101017.510.8 23.520.428.0
2019-Jan-15 00:44N 09°23' W 079°54'1 5.4
2019-Jan-15 00:30N 09°22' W 079°53'0 0.1
2019-Jan-14 23:59N 09°22' W 079°53'0 0.0
2019-Jan-14 23:29N 09°22' W 079°53'0 0.0
2019-Jan-14 22:59N 09°22' W 079°53'0 0.0
2019-Jan-14 22:29N 09°22' W 079°53'0 0.0
2019-Jan-14 21:59N 09°22' W 079°53'0 0.0
2019-Jan-14 21:29N 09°22' W 079°53'0 0.0
2019-Jan-14 20:59N 09°22' W 079°53'0 0.0
2019-Jan-14 20:29N 09°22' W 079°53'0 0.8
2019-Jan-14 20:00N 09°22' W 079°54'2 4.9
2019-Jan-14 19:30N 09°24' W 079°54'4 8.4
2019-Jan-14 19:00N 09°20' W 079°55'3 6.2
2019-Jan-14 18:30N 09°17' W 079°55'0 0.6
2019-Jan-14 18:00N 09°17' W 079°55'0 0.4
2019-Jan-14 17:30N 09°16' W 079°55'0 0.3
2019-Jan-14 17:00N 09°16' W 079°55'0 0.6
2019-Jan-14 16:30N 09°16' W 079°55'0 0.8
2019-Jan-14 16:00N 09°16' W 079°55'0 0.5
2019-Jan-14 15:29N 09°15' W 079°55'0 0.1
2019-Jan-14 14:56N 09°15' W 079°55'0 0.1
2019-Jan-14 14:26N 09°15' W 079°55'0 0.1
2019-Jan-14 14:00N 09°15' W 079°55'1 1.6
2019-Jan-14 13:30N 09°16' W 079°55'0 0.4
2019-Jan-14 13:00N 09°16' W 079°55'0 0.4
2019-Jan-14 12:30N 09°17' W 079°55'0 1.0
2019-Jan-14 12:00N 09°17' W 079°55'3 5.2
2019-Jan-14 11:30N 09°20' W 079°55'3 6.6
2019-Jan-14 11:00N 09°23' W 079°55'4 7.2
2019-Jan-14 10:30N 09°27' W 079°55'611.2
2019-Jan-14 10:00N 09°32' W 079°53'713.8
2019-Jan-14 09:30N 09°39' W 079°51'613.0
2019-Jan-14 09:00N 09°44' W 079°48'  

Dump ship's entire track history